Terminal Aerodrome Forecast
Issued by NWS

Home | Current Version | Previous Version | Graphics & Text | Print | Product List | Glossary On
Versions: 1 2 3 4 5 6 7 8 9 10 11 12 13 14 15 16 17 18 19 20 21 22 23 24 25 26 27 28 29 30 31 32 33
000
FTUS45 KBOU 012324
TAFBJC
TAF
KBJC 012324Z 0200/0224 36010KT P6SM SCT080 BKN140
     FM020200 29007KT P6SM SCT080 BKN140
     FM020600 VRB05KT P6SM SCT080 SCT140 SCT200
     FM021500 03008KT P6SM FEW080 SCT140 SCT200
     FM022100 04005KT P6SM VCTS FEW080CB BKN140 PROB30 0221/0224
      VRB20G32KT -TSRA BKN070CB=

USA.gov is the U.S. government's official web portal to all federal, state and local government web resources and services.